sensor_id;sensor_type;location;lat;lon;timestamp;P1;durP1;ratioP1;P2;durP2;ratioP2
65533;SDS011;53640;55.838;37.184;2024-03-23T00:54:29;34.67;;;17.17;;
65533;SDS011;53640;55.838;37.184;2024-03-23T00:56:55;34.10;;;18.67;;
65533;SDS011;53640;55.838;37.184;2024-03-23T00:59:25;34.90;;;19.75;;
65533;SDS011;53640;55.838;37.184;2024-03-23T01:01:54;35.42;;;18.23;;
65533;SDS011;53640;55.838;37.184;2024-03-23T01:04:22;30.70;;;17.15;;
65533;SDS011;53640;55.838;37.184;2024-03-23T01:06:48;35.75;;;19.20;;
65533;SDS011;53640;55.838;37.184;2024-03-23T01:09:16;32.03;;;17.80;;
65533;SDS011;53640;55.838;37.184;2024-03-23T01:11:42;41.53;;;18.90;;
65533;SDS011;53640;55.838;37.184;2024-03-23T01:14:08;39.45;;;20.15;;
65533;SDS011;53640;55.838;37.184;2024-03-23T01:16:35;34.20;;;19.10;;
65533;SDS011;53640;55.838;37.184;2024-03-23T01:19:01;36.25;;;19.83;;
65533;SDS011;53640;55.838;37.184;2024-03-23T01:21:28;32.72;;;17.42;;
65533;SDS011;53640;55.838;37.184;2024-03-23T01:23:55;33.40;;;18.10;;
65533;SDS011;53640;55.838;37.184;2024-03-23T01:26:21;34.20;;;19.38;;
65533;SDS011;53640;55.838;37.184;2024-03-23T01:28:49;35.17;;;18.90;;
65533;SDS011;53640;55.838;37.184;2024-03-23T01:31:15;37.00;;;19.80;;
65533;SDS011;53640;55.838;37.184;2024-03-23T01:33:42;34.72;;;18.48;;
65533;SDS011;53640;55.838;37.184;2024-03-23T01:36:08;33.80;;;18.17;;
65533;SDS011;53640;55.838;37.184;2024-03-23T01:38:35;36.97;;;20.63;;
65533;SDS011;53640;55.838;37.184;2024-03-23T01:41:02;35.30;;;19.40;;
65533;SDS011;53640;55.838;37.184;2024-03-23T01:43:28;35.15;;;19.05;;
65533;SDS011;53640;55.838;37.184;2024-03-23T01:45:55;36.13;;;20.08;;
65533;SDS011;53640;55.838;37.184;2024-03-23T01:48:24;40.00;;;20.23;;
65533;SDS011;53640;55.838;37.184;2024-03-23T01:50:52;43.13;;;20.92;;
65533;SDS011;53640;55.838;37.184;2024-03-23T01:53:21;42.53;;;20.88;;
65533;SDS011;53640;55.838;37.184;2024-03-23T01:55:52;36.28;;;19.88;;
65533;SDS011;53640;55.838;37.184;2024-03-23T01:58:21;37.45;;;20.67;;
65533;SDS011;53640;55.838;37.184;2024-03-23T02:00:48;37.13;;;20.13;;
65533;SDS011;53640;55.838;37.184;2024-03-23T02:05:54;42.72;;;21.98;;
65533;SDS011;53640;55.838;37.184;2024-03-23T02:08:24;40.97;;;20.30;;
65533;SDS011;53640;55.838;37.184;2024-03-23T02:10:52;42.75;;;20.98;;
65533;SDS011;53640;55.838;37.184;2024-03-23T02:13:19;39.10;;;20.08;;
65533;SDS011;53640;55.838;37.184;2024-03-23T02:15:47;35.58;;;19.42;;
65533;SDS011;53640;55.838;37.184;2024-03-23T02:18:14;39.17;;;20.73;;
65533;SDS011;53640;55.838;37.184;2024-03-23T02:20:40;35.53;;;20.83;;
65533;SDS011;53640;55.838;37.184;2024-03-23T02:23:13;42.97;;;22.58;;
65533;SDS011;53640;55.838;37.184;2024-03-23T02:25:40;41.13;;;21.02;;
65533;SDS011;53640;55.838;37.184;2024-03-23T02:28:07;41.03;;;21.27;;
65533;SDS011;53640;55.838;37.184;2024-03-23T02:30:37;39.92;;;20.70;;
65533;SDS011;53640;55.838;37.184;2024-03-23T02:33:04;36.65;;;19.90;;
65533;SDS011;53640;55.838;37.184;2024-03-23T02:35:33;37.88;;;20.55;;
65533;SDS011;53640;55.838;37.184;2024-03-23T02:37:59;35.50;;;20.60;;
65533;SDS011;53640;55.838;37.184;2024-03-23T02:40:28;42.15;;;21.23;;
65533;SDS011;53640;55.838;37.184;2024-03-23T02:42:56;38.97;;;20.50;;
65533;SDS011;53640;55.838;37.184;2024-03-23T02:45:22;42.67;;;21.55;;
65533;SDS011;53640;55.838;37.184;2024-03-23T02:47:49;41.78;;;21.73;;
65533;SDS011;53640;55.838;37.184;2024-03-23T02:50:19;35.78;;;20.60;;
65533;SDS011;53640;55.838;37.184;2024-03-23T02:52:48;44.42;;;21.88;;
65533;SDS011;53640;55.838;37.184;2024-03-23T02:55:15;41.78;;;21.58;;
65533;SDS011;53640;55.838;37.184;2024-03-23T02:57:43;41.60;;;21.33;;
65533;SDS011;53640;55.838;37.184;2024-03-23T03:00:10;40.90;;;21.35;;
65533;SDS011;53640;55.838;37.184;2024-03-23T03:02:37;38.58;;;21.40;;
65533;SDS011;53640;55.838;37.184;2024-03-23T03:05:05;34.58;;;20.33;;
65533;SDS011;53640;55.838;37.184;2024-03-23T03:07:33;42.20;;;21.35;;
65533;SDS011;53640;55.838;37.184;2024-03-23T03:09:59;43.30;;;22.42;;
65533;SDS011;53640;55.838;37.184;2024-03-23T03:12:29;41.30;;;21.33;;
65533;SDS011;53640;55.838;37.184;2024-03-23T03:14:56;38.33;;;20.80;;
65533;SDS011;53640;55.838;37.184;2024-03-23T03:17:23;40.00;;;21.35;;
65533;SDS011;53640;55.838;37.184;2024-03-23T03:19:50;41.72;;;21.45;;
65533;SDS011;53640;55.838;37.184;2024-03-23T03:22:23;40.78;;;21.45;;
65533;SDS011;53640;55.838;37.184;2024-03-23T03:24:50;35.40;;;20.27;;
65533;SDS011;53640;55.838;37.184;2024-03-23T03:27:16;38.50;;;20.77;;
65533;SDS011;53640;55.838;37.184;2024-03-23T03:29:43;39.10;;;21.30;;
65533;SDS011;53640;55.838;37.184;2024-03-23T03:32:09;37.45;;;21.00;;
65533;SDS011;53640;55.838;37.184;2024-03-23T03:34:36;43.88;;;21.45;;
65533;SDS011;53640;55.838;37.184;2024-03-23T03:37:04;41.58;;;21.38;;
65533;SDS011;53640;55.838;37.184;2024-03-23T03:39:31;42.05;;;22.95;;
65533;SDS011;53640;55.838;37.184;2024-03-23T03:41:57;39.28;;;21.38;;
65533;SDS011;53640;55.838;37.184;2024-03-23T03:44:24;42.05;;;21.27;;
65533;SDS011;53640;55.838;37.184;2024-03-23T03:46:51;40.42;;;22.52;;
65533;SDS011;53640;55.838;37.184;2024-03-23T03:49:20;35.28;;;19.70;;
65533;SDS011;53640;55.838;37.184;2024-03-23T03:51:47;39.30;;;20.10;;
65533;SDS011;53640;55.838;37.184;2024-03-23T03:54:24;39.42;;;20.48;;
65533;SDS011;53640;55.838;37.184;2024-03-23T03:57:14;40.70;;;21.50;;
65533;SDS011;53640;55.838;37.184;2024-03-23T03:59:40;38.75;;;21.30;;
65533;SDS011;53640;55.838;37.184;2024-03-23T04:02:12;39.47;;;21.27;;
65533;SDS011;53640;55.838;37.184;2024-03-23T04:04:38;40.00;;;20.65;;
65533;SDS011;53640;55.838;37.184;2024-03-23T04:07:05;40.00;;;22.40;;
65533;SDS011;53640;55.838;37.184;2024-03-23T04:09:32;47.05;;;23.02;;
65533;SDS011;53640;55.838;37.184;2024-03-23T04:11:59;39.35;;;20.33;;
65533;SDS011;53640;55.838;37.184;2024-03-23T04:14:26;45.17;;;21.77;;
65533;SDS011;53640;55.838;37.184;2024-03-23T04:17:01;41.63;;;22.65;;
65533;SDS011;53640;55.838;37.184;2024-03-23T04:19:30;38.00;;;20.73;;
65533;SDS011;53640;55.838;37.184;2024-03-23T04:21:57;37.72;;;20.27;;
65533;SDS011;53640;55.838;37.184;2024-03-23T04:24:23;38.25;;;20.58;;
65533;SDS011;53640;55.838;37.184;2024-03-23T04:26:52;36.83;;;19.75;;
65533;SDS011;53640;55.838;37.184;2024-03-23T04:29:18;40.50;;;21.05;;
65533;SDS011;53640;55.838;37.184;2024-03-23T04:31:45;38.42;;;20.60;;
65533;SDS011;53640;55.838;37.184;2024-03-23T04:34:11;38.85;;;21.00;;
65533;SDS011;53640;55.838;37.184;2024-03-23T04:36:39;35.47;;;20.35;;
65533;SDS011;53640;55.838;37.184;2024-03-23T04:39:07;43.28;;;22.48;;
65533;SDS011;53640;55.838;37.184;2024-03-23T04:41:35;33.53;;;19.48;;
65533;SDS011;53640;55.838;37.184;2024-03-23T04:44:02;42.33;;;19.83;;
65533;SDS011;53640;55.838;37.184;2024-03-23T04:46:28;32.65;;;18.75;;
65533;SDS011;53640;55.838;37.184;2024-03-23T04:48:55;37.60;;;20.30;;
65533;SDS011;53640;55.838;37.184;2024-03-23T04:51:23;39.28;;;20.65;;
65533;SDS011;53640;55.838;37.184;2024-03-23T04:53:49;36.92;;;19.88;;
65533;SDS011;53640;55.838;37.184;2024-03-23T04:56:16;35.90;;;19.67;;
65533;SDS011;53640;55.838;37.184;2024-03-23T04:59:01;33.38;;;19.42;;
65533;SDS011;53640;55.838;37.184;2024-03-23T05:01:31;36.42;;;19.63;;
65533;SDS011;53640;55.838;37.184;2024-03-23T05:04:00;33.05;;;18.23;;
65533;SDS011;53640;55.838;37.184;2024-03-23T05:06:30;35.55;;;19.92;;
65533;SDS011;53640;55.838;37.184;2024-03-23T05:08:59;34.60;;;18.85;;
65533;SDS011;53640;55.838;37.184;2024-03-23T05:11:32;31.50;;;18.58;;
65533;SDS011;53640;55.838;37.184;2024-03-23T05:13:59;34.05;;;19.23;;
65533;SDS011;53640;55.838;37.184;2024-03-23T05:16:26;32.45;;;18.63;;
65533;SDS011;53640;55.838;37.184;2024-03-23T05:18:53;31.38;;;17.02;;
65533;SDS011;53640;55.838;37.184;2024-03-23T05:21:19;32.92;;;17.83;;
65533;SDS011;53640;55.838;37.184;2024-03-23T05:23:47;32.35;;;18.40;;
65533;SDS011;53640;55.838;37.184;2024-03-23T05:26:18;28.38;;;17.02;;
65533;SDS011;53640;55.838;37.184;2024-03-23T05:28:45;27.40;;;16.98;;
65533;SDS011;53640;55.838;37.184;2024-03-23T05:31:11;34.10;;;17.48;;
65533;SDS011;53640;55.838;37.184;2024-03-23T05:33:38;29.25;;;17.63;;
65533;SDS011;53640;55.838;37.184;2024-03-23T05:36:04;31.45;;;18.27;;
65533;SDS011;53640;55.838;37.184;2024-03-23T05:38:32;29.65;;;16.77;;
65533;SDS011;53640;55.838;37.184;2024-03-23T05:40:59;28.85;;;16.08;;
65533;SDS011;53640;55.838;37.184;2024-03-23T05:43:26;24.95;;;15.98;;
65533;SDS011;53640;55.838;37.184;2024-03-23T05:45:55;26.90;;;16.23;;
65533;SDS011;53640;55.838;37.184;2024-03-23T05:48:25;27.35;;;16.00;;
65533;SDS011;53640;55.838;37.184;2024-03-23T05:50:52;25.05;;;14.60;;
65533;SDS011;53640;55.838;37.184;2024-03-23T05:53:19;29.83;;;16.08;;
65533;SDS011;53640;55.838;37.184;2024-03-23T05:55:50;21.20;;;14.63;;
65533;SDS011;53640;55.838;37.184;2024-03-23T05:58:21;24.52;;;14.82;;
65533;SDS011;53640;55.838;37.184;2024-03-23T06:00:50;24.17;;;14.68;;
65533;SDS011;53640;55.838;37.184;2024-03-23T06:03:24;23.67;;;14.32;;
65533;SDS011;53640;55.838;37.184;2024-03-23T06:05:51;22.33;;;14.27;;
65533;SDS011;53640;55.838;37.184;2024-03-23T06:08:20;24.67;;;13.52;;
65533;SDS011;53640;55.838;37.184;2024-03-23T06:10:48;25.48;;;15.30;;
65533;SDS011;53640;55.838;37.184;2024-03-23T06:13:16;21.20;;;13.88;;
65533;SDS011;53640;55.838;37.184;2024-03-23T06:15:44;25.58;;;14.38;;
65533;SDS011;53640;55.838;37.184;2024-03-23T06:18:13;21.80;;;13.77;;
65533;SDS011;53640;55.838;37.184;2024-03-23T06:20:40;21.17;;;12.80;;
65533;SDS011;53640;55.838;37.184;2024-03-23T06:23:06;23.35;;;13.60;;
65533;SDS011;53640;55.838;37.184;2024-03-23T06:25:33;19.23;;;13.00;;
65533;SDS011;53640;55.838;37.184;2024-03-23T06:28:01;21.40;;;13.30;;
65533;SDS011;53640;55.838;37.184;2024-03-23T06:30:30;18.40;;;12.15;;
65533;SDS011;53640;55.838;37.184;2024-03-23T06:32:59;22.38;;;13.63;;
65533;SDS011;53640;55.838;37.184;2024-03-23T06:35:26;19.15;;;12.55;;
65533;SDS011;53640;55.838;37.184;2024-03-23T06:37:54;21.25;;;12.88;;
65533;SDS011;53640;55.838;37.184;2024-03-23T06:40:20;17.08;;;11.50;;
65533;SDS011;53640;55.838;37.184;2024-03-23T06:42:47;18.85;;;12.30;;
65533;SDS011;53640;55.838;37.184;2024-03-23T06:45:16;20.40;;;12.20;;
65533;SDS011;53640;55.838;37.184;2024-03-23T06:47:45;18.20;;;11.73;;
65533;SDS011;53640;55.838;37.184;2024-03-23T06:50:11;20.00;;;11.82;;
65533;SDS011;53640;55.838;37.184;2024-03-23T06:52:38;18.95;;;10.68;;
65533;SDS011;53640;55.838;37.184;2024-03-23T06:55:06;18.35;;;11.88;;
65533;SDS011;53640;55.838;37.184;2024-03-23T06:57:35;18.40;;;11.93;;
65533;SDS011;53640;55.838;37.184;2024-03-23T07:00:02;16.70;;;11.05;;
65533;SDS011;53640;55.838;37.184;2024-03-23T07:02:31;18.42;;;10.48;;
65533;SDS011;53640;55.838;37.184;2024-03-23T07:04:57;16.73;;;10.82;;
65533;SDS011;53640;55.838;37.184;2024-03-23T07:07:24;14.38;;;10.38;;
65533;SDS011;53640;55.838;37.184;2024-03-23T07:09:50;14.05;;;9.70;;
65533;SDS011;53640;55.838;37.184;2024-03-23T07:12:18;12.45;;;9.13;;
65533;SDS011;53640;55.838;37.184;2024-03-23T07:14:45;16.02;;;10.80;;
65533;SDS011;53640;55.838;37.184;2024-03-23T07:17:11;12.90;;;9.35;;
65533;SDS011;53640;55.838;37.184;2024-03-23T07:19:38;12.35;;;9.23;;
65533;SDS011;53640;55.838;37.184;2024-03-23T07:22:04;13.77;;;8.77;;
65533;SDS011;53640;55.838;37.184;2024-03-23T07:24:31;15.20;;;8.50;;
65533;SDS011;53640;55.838;37.184;2024-03-23T07:26:58;12.40;;;8.65;;
65533;SDS011;53640;55.838;37.184;2024-03-23T07:29:25;12.95;;;8.48;;
65533;SDS011;53640;55.838;37.184;2024-03-23T07:31:51;15.70;;;9.15;;
65533;SDS011;53640;55.838;37.184;2024-03-23T07:34:17;11.00;;;8.07;;
65533;SDS011;53640;55.838;37.184;2024-03-23T07:36:44;12.32;;;8.45;;
65533;SDS011;53640;55.838;37.184;2024-03-23T07:39:10;12.40;;;8.45;;
65533;SDS011;53640;55.838;37.184;2024-03-23T07:41:37;13.55;;;8.77;;
65533;SDS011;53640;55.838;37.184;2024-03-23T07:44:03;12.15;;;7.95;;
65533;SDS011;53640;55.838;37.184;2024-03-23T07:46:30;14.45;;;8.43;;
65533;SDS011;53640;55.838;37.184;2024-03-23T07:48:56;11.50;;;8.05;;
65533;SDS011;53640;55.838;37.184;2024-03-23T07:51:23;10.13;;;7.65;;
65533;SDS011;53640;55.838;37.184;2024-03-23T07:53:51;11.30;;;7.88;;
65533;SDS011;53640;55.838;37.184;2024-03-23T07:56:19;11.60;;;8.00;;
65533;SDS011;53640;55.838;37.184;2024-03-23T07:58:45;11.57;;;8.05;;
65533;SDS011;53640;55.838;37.184;2024-03-23T08:01:14;10.13;;;7.78;;
65533;SDS011;53640;55.838;37.184;2024-03-23T08:03:43;9.77;;;7.93;;
65533;SDS011;53640;55.838;37.184;2024-03-23T08:06:14;12.85;;;8.40;;
65533;SDS011;53640;55.838;37.184;2024-03-23T08:08:49;11.15;;;8.00;;
65533;SDS011;53640;55.838;37.184;2024-03-23T08:11:27;12.18;;;7.97;;
65533;SDS011;53640;55.838;37.184;2024-03-23T08:13:55;10.90;;;8.13;;
65533;SDS011;53640;55.838;37.184;2024-03-23T08:16:22;12.02;;;8.43;;
65533;SDS011;53640;55.838;37.184;2024-03-23T08:18:54;11.45;;;7.35;;
65533;SDS011;53640;55.838;37.184;2024-03-23T08:21:23;11.00;;;7.53;;
65533;SDS011;53640;55.838;37.184;2024-03-23T08:23:52;12.73;;;8.73;;
65533;SDS011;53640;55.838;37.184;2024-03-23T08:26:18;11.05;;;8.52;;
65533;SDS011;53640;55.838;37.184;2024-03-23T08:28:45;11.80;;;8.75;;
65533;SDS011;53640;55.838;37.184;2024-03-23T08:31:12;13.35;;;8.93;;
65533;SDS011;53640;55.838;37.184;2024-03-23T08:33:39;12.70;;;8.80;;
65533;SDS011;53640;55.838;37.184;2024-03-23T08:36:09;12.30;;;8.35;;
65533;SDS011;53640;55.838;37.184;2024-03-23T08:38:49;12.63;;;8.63;;
65533;SDS011;53640;55.838;37.184;2024-03-23T08:41:39;10.48;;;7.95;;
65533;SDS011;53640;55.838;37.184;2024-03-23T08:44:24;10.77;;;8.10;;
65533;SDS011;53640;55.838;37.184;2024-03-23T08:46:55;11.45;;;8.43;;
65533;SDS011;53640;55.838;37.184;2024-03-23T08:49:28;12.25;;;8.68;;
65533;SDS011;53640;55.838;37.184;2024-03-23T08:52:30;12.25;;;9.18;;
65533;SDS011;53640;55.838;37.184;2024-03-23T08:55:11;13.05;;;8.82;;
65533;SDS011;53640;55.838;37.184;2024-03-23T08:58:07;10.90;;;8.30;;
65533;SDS011;53640;55.838;37.184;2024-03-23T09:00:57;10.30;;;8.23;;
65533;SDS011;53640;55.838;37.184;2024-03-23T09:03:48;13.55;;;8.95;;
65533;SDS011;53640;55.838;37.184;2024-03-23T09:06:16;14.02;;;9.10;;
65533;SDS011;53640;55.838;37.184;2024-03-23T09:08:43;13.23;;;8.40;;
65533;SDS011;53640;55.838;37.184;2024-03-23T09:11:10;11.55;;;8.70;;
65533;SDS011;53640;55.838;37.184;2024-03-23T09:13:40;11.93;;;8.88;;
65533;SDS011;53640;55.838;37.184;2024-03-23T09:16:13;12.30;;;8.70;;
65533;SDS011;53640;55.838;37.184;2024-03-23T09:25:28;10.13;;;8.00;;
65533;SDS011;53640;55.838;37.184;2024-03-23T09:31:44;11.20;;;8.18;;
65533;SDS011;53640;55.838;37.184;2024-03-23T09:34:14;11.73;;;8.43;;
65533;SDS011;53640;55.838;37.184;2024-03-23T09:36:43;9.32;;;6.88;;
65533;SDS011;53640;55.838;37.184;2024-03-23T09:39:09;10.93;;;8.02;;
65533;SDS011;53640;55.838;37.184;2024-03-23T09:41:37;12.20;;;7.60;;
65533;SDS011;53640;55.838;37.184;2024-03-23T09:44:08;13.20;;;7.77;;
65533;SDS011;53640;55.838;37.184;2024-03-23T09:46:38;10.45;;;7.72;;
65533;SDS011;53640;55.838;37.184;2024-03-23T09:50:22;10.68;;;7.45;;
65533;SDS011;53640;55.838;37.184;2024-03-23T09:52:49;10.68;;;7.47;;
65533;SDS011;53640;55.838;37.184;2024-03-23T09:55:20;10.18;;;8.20;;
65533;SDS011;53640;55.838;37.184;2024-03-23T09:58:17;11.00;;;6.70;;
65533;SDS011;53640;55.838;37.184;2024-03-23T10:00:54;9.52;;;7.13;;
65533;SDS011;53640;55.838;37.184;2024-03-23T10:04:07;10.73;;;7.57;;
65533;SDS011;53640;55.838;37.184;2024-03-23T10:06:33;10.45;;;7.22;;
65533;SDS011;53640;55.838;37.184;2024-03-23T10:09:00;8.07;;;6.53;;
65533;SDS011;53640;55.838;37.184;2024-03-23T10:11:29;10.98;;;7.15;;
65533;SDS011;53640;55.838;37.184;2024-03-23T10:13:59;10.02;;;7.15;;
65533;SDS011;53640;55.838;37.184;2024-03-23T10:16:25;9.45;;;7.78;;
65533;SDS011;53640;55.838;37.184;2024-03-23T10:18:53;8.98;;;7.03;;
65533;SDS011;53640;55.838;37.184;2024-03-23T10:21:20;9.38;;;6.60;;
65533;SDS011;53640;55.838;37.184;2024-03-23T10:23:46;11.00;;;7.82;;
65533;SDS011;53640;55.838;37.184;2024-03-23T10:26:24;9.40;;;6.90;;
65533;SDS011;53640;55.838;37.184;2024-03-23T10:28:56;11.23;;;7.13;;
65533;SDS011;53640;55.838;37.184;2024-03-23T10:31:27;10.20;;;7.15;;
65533;SDS011;53640;55.838;37.184;2024-03-23T10:34:25;9.98;;;7.25;;
65533;SDS011;53640;55.838;37.184;2024-03-23T10:36:55;10.45;;;7.53;;
65533;SDS011;53640;55.838;37.184;2024-03-23T10:39:24;11.73;;;7.70;;
65533;SDS011;53640;55.838;37.184;2024-03-23T10:41:51;11.25;;;7.47;;
65533;SDS011;53640;55.838;37.184;2024-03-23T10:44:19;11.05;;;7.50;;
65533;SDS011;53640;55.838;37.184;2024-03-23T10:46:45;10.68;;;6.72;;
65533;SDS011;53640;55.838;37.184;2024-03-23T10:49:14;11.95;;;8.52;;
65533;SDS011;53640;55.838;37.184;2024-03-23T10:51:53;12.90;;;8.40;;
65533;SDS011;53640;55.838;37.184;2024-03-23T10:54:20;13.93;;;8.40;;
65533;SDS011;53640;55.838;37.184;2024-03-23T10:56:48;13.23;;;7.78;;
65533;SDS011;53640;55.838;37.184;2024-03-23T10:59:19;11.80;;;8.05;;
65533;SDS011;53640;55.838;37.184;2024-03-23T11:01:59;10.13;;;6.93;;
65533;SDS011;53640;55.838;37.184;2024-03-23T11:04:33;14.27;;;8.23;;
65533;SDS011;53640;55.838;37.184;2024-03-23T11:09:54;12.05;;;7.55;;
65533;SDS011;53640;55.838;37.184;2024-03-23T11:17:26;10.57;;;7.88;;
65533;SDS011;53640;55.838;37.184;2024-03-23T11:20:05;10.52;;;7.88;;
65533;SDS011;53640;55.838;37.184;2024-03-23T11:25:17;11.35;;;7.80;;
65533;SDS011;53640;55.838;37.184;2024-03-23T11:27:48;10.73;;;7.53;;
65533;SDS011;53640;55.838;37.184;2024-03-23T11:32:46;8.38;;;6.90;;
65533;SDS011;53640;55.838;37.184;2024-03-23T11:38:06;9.65;;;7.28;;
65533;SDS011;53640;55.838;37.184;2024-03-23T11:40:35;11.52;;;8.20;;
65533;SDS011;53640;55.838;37.184;2024-03-23T11:43:04;9.38;;;7.40;;
65533;SDS011;53640;55.838;37.184;2024-03-23T11:48:08;9.02;;;6.90;;
65533;SDS011;53640;55.838;37.184;2024-03-23T11:50:41;11.35;;;7.95;;
65533;SDS011;53640;55.838;37.184;2024-03-23T11:59:49;8.80;;;6.82;;
65533;SDS011;53640;55.838;37.184;2024-03-23T12:02:26;8.48;;;6.32;;
65533;SDS011;53640;55.838;37.184;2024-03-23T12:04:52;7.43;;;6.40;;
65533;SDS011;53640;55.838;37.184;2024-03-23T12:07:32;7.00;;;5.70;;
65533;SDS011;53640;55.838;37.184;2024-03-23T12:10:02;8.55;;;6.80;;
65533;SDS011;53640;55.838;37.184;2024-03-23T12:12:33;9.18;;;7.00;;
65533;SDS011;53640;55.838;37.184;2024-03-23T12:15:01;9.15;;;7.05;;
65533;SDS011;53640;55.838;37.184;2024-03-23T12:17:32;10.10;;;7.38;;
65533;SDS011;53640;55.838;37.184;2024-03-23T12:20:01;8.75;;;6.68;;
65533;SDS011;53640;55.838;37.184;2024-03-23T12:22:34;9.57;;;7.15;;
65533;SDS011;53640;55.838;37.184;2024-03-23T12:25:03;8.85;;;7.07;;
65533;SDS011;53640;55.838;37.184;2024-03-23T12:27:30;10.90;;;7.55;;
65533;SDS011;53640;55.838;37.184;2024-03-23T12:30:05;11.05;;;7.40;;
65533;SDS011;53640;55.838;37.184;2024-03-23T12:32:35;10.07;;;6.78;;
65533;SDS011;53640;55.838;37.184;2024-03-23T12:35:04;10.30;;;7.07;;
65533;SDS011;53640;55.838;37.184;2024-03-23T12:37:40;11.75;;;6.93;;
65533;SDS011;53640;55.838;37.184;2024-03-23T12:40:18;8.85;;;7.28;;
65533;SDS011;53640;55.838;37.184;2024-03-23T12:42:47;11.13;;;8.07;;
65533;SDS011;53640;55.838;37.184;2024-03-23T12:45:19;10.27;;;7.38;;
65533;SDS011;53640;55.838;37.184;2024-03-23T12:47:46;9.73;;;6.80;;
65533;SDS011;53640;55.838;37.184;2024-03-23T12:50:13;10.05;;;7.03;;
65533;SDS011;53640;55.838;37.184;2024-03-23T12:52:42;8.82;;;7.43;;
65533;SDS011;53640;55.838;37.184;2024-03-23T12:55:09;8.95;;;6.88;;
65533;SDS011;53640;55.838;37.184;2024-03-23T12:57:37;8.68;;;6.80;;
65533;SDS011;53640;55.838;37.184;2024-03-23T13:00:10;10.10;;;7.18;;
65533;SDS011;53640;55.838;37.184;2024-03-23T13:02:44;10.75;;;8.27;;
65533;SDS011;53640;55.838;37.184;2024-03-23T13:05:16;12.80;;;7.80;;
65533;SDS011;53640;55.838;37.184;2024-03-23T13:07:49;11.32;;;7.15;;
65533;SDS011;53640;55.838;37.184;2024-03-23T13:10:23;10.52;;;7.38;;
65533;SDS011;53640;55.838;37.184;2024-03-23T13:13:01;11.10;;;7.30;;
65533;SDS011;53640;55.838;37.184;2024-03-23T13:15:29;11.20;;;7.78;;
65533;SDS011;53640;55.838;37.184;2024-03-23T13:18:07;11.23;;;7.68;;
65533;SDS011;53640;55.838;37.184;2024-03-23T13:20:35;12.38;;;7.95;;
65533;SDS011;53640;55.838;37.184;2024-03-23T13:23:06;12.93;;;8.27;;
65533;SDS011;53640;55.838;37.184;2024-03-23T13:25:37;12.18;;;8.35;;
65533;SDS011;53640;55.838;37.184;2024-03-23T13:28:03;11.30;;;7.72;;
65533;SDS011;53640;55.838;37.184;2024-03-23T13:30:30;10.38;;;7.53;;
65533;SDS011;53640;55.838;37.184;2024-03-23T13:35:29;10.00;;;6.63;;
65533;SDS011;53640;55.838;37.184;2024-03-23T13:37:59;10.68;;;8.10;;
65533;SDS011;53640;55.838;37.184;2024-03-23T13:40:28;10.60;;;7.70;;
65533;SDS011;53640;55.838;37.184;2024-03-23T13:42:54;10.30;;;8.07;;
65533;SDS011;53640;55.838;37.184;2024-03-23T13:45:24;11.45;;;7.13;;
65533;SDS011;53640;55.838;37.184;2024-03-23T13:47:56;9.60;;;7.50;;
65533;SDS011;53640;55.838;37.184;2024-03-23T13:50:25;9.38;;;7.20;;
65533;SDS011;53640;55.838;37.184;2024-03-23T13:52:57;9.98;;;6.70;;
65533;SDS011;53640;55.838;37.184;2024-03-23T13:55:43;9.30;;;6.97;;
65533;SDS011;53640;55.838;37.184;2024-03-23T13:58:15;9.40;;;7.03;;
65533;SDS011;53640;55.838;37.184;2024-03-23T14:00:52;10.60;;;7.82;;
65533;SDS011;53640;55.838;37.184;2024-03-23T14:03:44;12.07;;;8.20;;
65533;SDS011;53640;55.838;37.184;2024-03-23T14:06:11;14.10;;;8.18;;
65533;SDS011;53640;55.838;37.184;2024-03-23T14:08:37;11.48;;;8.40;;
65533;SDS011;53640;55.838;37.184;2024-03-23T14:11:08;14.35;;;8.32;;
65533;SDS011;53640;55.838;37.184;2024-03-23T14:13:41;9.95;;;7.55;;
65533;SDS011;53640;55.838;37.184;2024-03-23T14:16:07;10.07;;;7.72;;
65533;SDS011;53640;55.838;37.184;2024-03-23T14:18:34;8.77;;;6.90;;
65533;SDS011;53640;55.838;37.184;2024-03-23T14:21:01;11.52;;;7.53;;
65533;SDS011;53640;55.838;37.184;2024-03-23T14:23:28;7.78;;;6.70;;
65533;SDS011;53640;55.838;37.184;2024-03-23T14:25:58;9.57;;;7.28;;
65533;SDS011;53640;55.838;37.184;2024-03-23T14:28:25;9.40;;;7.15;;
65533;SDS011;53640;55.838;37.184;2024-03-23T14:30:52;8.60;;;6.72;;
65533;SDS011;53640;55.838;37.184;2024-03-23T14:33:23;11.13;;;8.20;;
65533;SDS011;53640;55.838;37.184;2024-03-23T14:35:53;9.05;;;6.35;;
65533;SDS011;53640;55.838;37.184;2024-03-23T14:38:25;9.65;;;7.35;;
65533;SDS011;53640;55.838;37.184;2024-03-23T14:40:51;7.30;;;5.95;;
65533;SDS011;53640;55.838;37.184;2024-03-23T14:43:19;7.45;;;6.20;;
65533;SDS011;53640;55.838;37.184;2024-03-23T14:46:05;7.90;;;5.70;;
65533;SDS011;53640;55.838;37.184;2024-03-23T14:48:36;8.23;;;6.50;;
65533;SDS011;53640;55.838;37.184;2024-03-23T14:51:04;9.82;;;6.30;;
65533;SDS011;53640;55.838;37.184;2024-03-23T14:53:40;10.50;;;6.60;;
65533;SDS011;53640;55.838;37.184;2024-03-23T14:56:08;8.40;;;6.00;;
65533;SDS011;53640;55.838;37.184;2024-03-23T14:58:41;8.32;;;6.10;;
65533;SDS011;53640;55.838;37.184;2024-03-23T15:01:08;9.35;;;6.45;;
65533;SDS011;53640;55.838;37.184;2024-03-23T15:03:39;8.02;;;5.80;;
65533;SDS011;53640;55.838;37.184;2024-03-23T15:06:11;8.15;;;6.05;;
65533;SDS011;53640;55.838;37.184;2024-03-23T15:08:38;9.60;;;6.88;;
65533;SDS011;53640;55.838;37.184;2024-03-23T15:11:06;6.63;;;5.72;;
65533;SDS011;53640;55.838;37.184;2024-03-23T15:13:36;7.85;;;6.25;;
65533;SDS011;53640;55.838;37.184;2024-03-23T15:16:04;6.85;;;5.80;;
65533;SDS011;53640;55.838;37.184;2024-03-23T15:18:32;8.50;;;6.43;;
65533;SDS011;53640;55.838;37.184;2024-03-23T15:21:02;6.95;;;5.45;;
65533;SDS011;53640;55.838;37.184;2024-03-23T15:23:33;8.18;;;6.25;;
65533;SDS011;53640;55.838;37.184;2024-03-23T15:26:01;7.03;;;5.97;;
65533;SDS011;53640;55.838;37.184;2024-03-23T15:28:28;8.68;;;5.90;;
65533;SDS011;53640;55.838;37.184;2024-03-23T15:31:08;8.45;;;6.13;;
65533;SDS011;53640;55.838;37.184;2024-03-23T15:33:40;9.07;;;6.55;;
65533;SDS011;53640;55.838;37.184;2024-03-23T15:36:07;10.32;;;6.10;;
65533;SDS011;53640;55.838;37.184;2024-03-23T15:38:52;10.98;;;6.68;;
65533;SDS011;53640;55.838;37.184;2024-03-23T15:41:20;9.57;;;5.90;;
65533;SDS011;53640;55.838;37.184;2024-03-23T15:43:52;7.03;;;5.82;;
65533;SDS011;53640;55.838;37.184;2024-03-23T15:46:19;9.73;;;6.18;;
65533;SDS011;53640;55.838;37.184;2024-03-23T15:48:46;8.73;;;6.63;;
65533;SDS011;53640;55.838;37.184;2024-03-23T15:51:16;9.90;;;6.22;;
65533;SDS011;53640;55.838;37.184;2024-03-23T15:53:44;6.22;;;5.32;;
65533;SDS011;53640;55.838;37.184;2024-03-23T15:56:10;7.95;;;5.93;;
65533;SDS011;53640;55.838;37.184;2024-03-23T15:58:36;7.03;;;5.70;;
65533;SDS011;53640;55.838;37.184;2024-03-23T16:01:07;5.93;;;5.28;;
65533;SDS011;53640;55.838;37.184;2024-03-23T16:03:37;6.70;;;5.60;;
65533;SDS011;53640;55.838;37.184;2024-03-23T16:06:04;6.03;;;5.18;;
65533;SDS011;53640;55.838;37.184;2024-03-23T16:08:33;7.97;;;5.80;;